Time;durP1;ratioP1;P1;durP2;ratioP2;P2;SDS_P1;SDS_P2;PMS_P1;PMS_P2;Temp;Humidity;BMP_temperature;BMP_pressure;BME280_temperature;BME280_humidity;BME280_pressure;Samples;Min_cycle;Max_cycle;Signal;HPM_P1;HPM_P2
2021/04/17 00:01:37;;;;;;;14.18;9.75;;;5.10;80.00;;;4.04;65.44;98999.19;5051632;28;20445;-85
2021/04/17 00:04:04;;;;;;;12.68;9.70;;;5.10;79.90;;;4.11;65.31;98997.50;5036393;28;20406;-83
2021/04/17 00:06:31;;;;;;;15.32;9.50;;;5.20;79.80;;;4.17;64.79;98988.97;5037495;28;20407;-83
2021/04/17 00:08:58;;;;;;;12.55;8.98;;;5.20;79.50;;;4.22;64.85;98994.50;5055584;28;20398;-84
2021/04/17 00:11:25;;;;;;;11.73;9.13;;;5.30;79.30;;;4.28;64.40;98991.19;5055753;28;20395;-83
2021/04/17 00:13:52;;;;;;;12.65;9.65;;;5.30;79.10;;;4.32;64.24;98983.81;5054370;28;20415;-83
2021/04/17 00:16:19;;;;;;;12.60;9.60;;;5.40;78.90;;;4.22;64.69;98983.19;5055252;28;20406;-81
2021/04/17 00:18:45;;;;;;;12.15;9.43;;;5.40;78.90;;;4.13;64.91;98979.00;5055735;28;20402;-81
2021/04/17 00:21:12;;;;;;;15.35;9.73;;;5.30;79.20;;;4.05;65.25;98979.84;5055512;28;20419;-83
2021/04/17 00:23:38;;;;;;;12.98;9.35;;;5.20;79.40;;;3.99;65.64;98982.31;5056208;28;20443;-81
2021/04/17 00:26:05;;;;;;;13.80;10.18;;;5.10;79.80;;;4.04;65.44;98975.59;5059167;28;20402;-83
2021/04/17 00:28:31;;;;;;;12.10;8.70;;;5.20;80.00;;;4.09;65.24;98973.28;5058637;28;20405;-84
2021/04/17 00:30:58;;;;;;;11.35;8.88;;;5.20;79.80;;;4.13;65.30;98971.16;5059356;28;20423;-83
2021/04/17 00:33:24;;;;;;;12.30;8.77;;;5.20;79.70;;;4.17;64.91;98969.81;5059062;28;20399;-85
2021/04/17 00:35:50;;;;;;;12.50;9.02;;;5.30;79.60;;;4.09;65.26;98970.66;5053878;28;20426;-85
2021/04/17 00:38:16;;;;;;;16.55;9.00;;;5.30;79.60;;;4.17;65.04;98962.75;5047990;28;20426;-84
2021/04/17 00:40:42;;;;;;;13.88;8.65;;;5.30;79.60;;;4.20;64.76;98959.00;5046949;28;20422;-86
2021/04/17 00:43:09;;;;;;;12.52;9.73;;;5.30;79.30;;;4.21;64.88;98964.03;5044305;28;20413;-85
2021/04/17 00:45:36;;;;;;;11.82;9.02;;;5.30;79.20;;;4.21;64.80;98961.41;5027572;28;20431;-86
2021/04/17 00:48:03;;;;;;;12.20;9.02;;;5.30;79.20;;;4.16;64.61;98958.50;5053099;28;20533;-85
2021/04/17 00:50:29;;;;;;;11.50;9.20;;;5.30;79.20;;;4.21;64.54;98965.88;5057972;28;20391;-85
2021/04/17 00:52:56;;;;;;;11.15;9.07;;;5.30;79.20;;;4.23;64.71;98950.75;5058082;28;20419;-84
2021/04/17 00:55:22;;;;;;;11.75;9.73;;;5.30;79.10;;;4.17;64.79;98960.13;5057965;28;20391;-85
2021/04/17 00:57:48;;;;;;;12.88;9.25;;;5.30;79.10;;;4.11;65.29;98955.59;5039964;28;20426;-84
2021/04/17 01:00:17;;;;;;;12.23;9.40;;;5.20;79.30;;;4.13;65.05;98952.81;5056774;28;20470;-85
2021/04/17 01:02:51;;;;;;;13.20;9.77;;;5.20;79.70;;;4.13;65.00;98955.41;5039707;28;20445;-84
2021/04/17 01:05:20;;;;;;;13.48;9.50;;;5.30;79.70;;;4.13;65.13;98952.81;5040615;28;20426;-85
2021/04/17 01:07:49;;;;;;;12.60;9.70;;;5.20;80.30;;;4.19;64.90;98952.94;5057297;28;20414;-81
2021/04/17 01:10:27;;;;;;;12.10;9.32;;;5.30;79.60;;;4.23;64.65;98954.19;5057295;28;20415;-83
2021/04/17 01:12:55;;;;;;;12.38;9.82;;;5.30;79.50;;;4.33;64.86;98942.69;5040465;28;20415;-81
2021/04/17 01:15:24;;;;;;;13.35;9.52;;;5.40;79.30;;;4.21;64.81;98950.13;5058190;28;20426;-83
2021/04/17 01:17:54;;;;;;;13.80;9.52;;;5.30;79.00;;;4.08;64.94;98945.44;5057536;28;20411;-86
2021/04/17 01:20:34;;;;;;;14.27;10.23;;;5.20;79.10;;;3.97;65.42;98945.00;5057293;28;20406;-84
2021/04/17 01:23:10;;;;;;;13.52;9.73;;;5.10;79.40;;;3.98;65.24;98946.66;5056337;28;20478;-85
2021/04/17 01:25:54;;;;;;;11.93;9.30;;;5.10;79.80;;;4.23;64.87;98950.75;5057033;28;20421;-84
2021/04/17 01:28:23;;;;;;;12.45;9.45;;;5.20;79.80;;;4.29;64.57;98950.06;5056743;28;20438;-84
2021/04/17 01:30:52;;;;;;;13.85;9.45;;;5.30;79.20;;;4.28;64.71;98948.47;5057367;28;20395;-84
2021/04/17 01:33:23;;;;;;;14.85;9.90;;;5.40;79.10;;;4.36;64.32;98942.34;5056426;28;20415;-85
2021/04/17 01:35:51;;;;;;;13.48;9.57;;;5.40;79.00;;;4.34;64.33;98939.91;5054871;28;20380;-84
2021/04/17 01:38:23;;;;;;;16.80;9.67;;;5.40;78.90;;;4.29;64.55;98944.81;5055958;28;20490;-85
2021/04/17 01:40:56;;;;;;;11.85;9.15;;;5.40;78.90;;;4.37;64.31;98939.53;5055110;28;20498;-85
2021/04/17 01:43:26;;;;;;;15.93;10.18;;;5.40;78.90;;;4.13;64.83;98927.41;5052931;28;20421;-85
2021/04/17 01:45:54;;;;;;;13.53;10.27;;;5.30;78.90;;;3.98;65.46;98921.28;5052830;28;20411;-85
2021/04/17 01:48:21;;;;;;;14.02;10.45;;;5.10;79.70;;;3.89;65.86;98930.97;5052339;28;20506;-84
2021/04/17 01:50:48;;;;;;;14.30;11.00;;;5.10;80.10;;;3.80;66.33;98929.34;5049286;28;20430;-86
2021/04/17 01:53:22;;;;;;;14.07;10.60;;;5.00;80.60;;;3.89;66.05;98925.72;5047152;28;20538;-85
2021/04/17 01:55:50;;;;;;;15.38;11.00;;;5.00;80.80;;;3.95;65.63;98928.63;5044932;28;20841;-86
2021/04/17 01:58:23;;;;;;;14.87;10.40;;;5.10;80.30;;;4.16;65.50;98934.09;5025363;28;20430;-83
2021/04/17 02:00:52;;;;;;;14.40;10.55;;;5.20;80.40;;;4.22;65.40;98930.78;5046766;28;20544;-86
2021/04/17 02:03:19;;;;;;;19.48;11.27;;;5.30;80.00;;;4.07;65.93;98935.13;5044841;28;20491;-85
2021/04/17 02:05:48;;;;;;;14.30;10.95;;;5.20;80.20;;;3.92;66.46;98928.97;5027246;28;20587;-84
2021/04/17 02:08:15;;;;;;;14.02;11.13;;;5.10;80.60;;;3.71;67.44;98933.00;5043615;28;20423;-85
2021/04/17 02:10:42;;;;;;;16.63;11.73;;;4.90;81.60;;;3.54;67.87;98926.16;5026317;28;20415;-83
2021/04/17 02:13:11;;;;;;;17.60;12.05;;;4.80;82.30;;;3.33;69.04;98928.50;5044337;28;20492;-84
2021/04/17 02:15:38;;;;;;;16.70;12.25;;;4.60;83.60;;;3.26;69.40;98922.31;5025507;28;20438;-85
2021/04/17 02:18:14;;;;;;;17.25;12.05;;;4.50;84.50;;;3.15;70.10;98920.88;5050611;28;20426;-86
2021/04/17 02:20:45;;;;;;;16.63;12.07;;;4.40;85.10;;;3.19;70.42;98916.94;5029465;28;20462;-83
2021/04/17 02:23:13;;;;;;;16.42;12.38;;;4.30;85.30;;;3.20;69.95;98928.22;5053350;28;20409;-84
2021/04/17 02:25:39;;;;;;;18.25;12.60;;;4.40;85.50;;;3.16;70.70;98919.09;5054228;28;20426;-84
2021/04/17 02:28:07;;;;;;;16.53;12.53;;;4.40;85.70;;;3.22;70.71;98926.25;5054464;28;20419;-84
2021/04/17 02:30:36;;;;;;;18.65;12.70;;;4.40;85.80;;;3.20;70.78;98921.19;5033221;28;20434;-84
2021/04/17 02:33:03;;;;;;;17.98;12.90;;;4.40;86.60;;;3.24;70.75;98926.88;5047309;28;20419;-84
2021/04/17 02:35:29;;;;;;;20.77;12.95;;;4.40;85.90;;;3.20;70.57;98923.81;5026756;28;20430;-85
2021/04/17 02:37:56;;;;;;;16.90;12.15;;;4.40;85.90;;;3.27;70.62;98923.94;5025114;28;20422;-85
2021/04/17 02:40:22;;;;;;;19.13;13.20;;;4.40;86.70;;;3.31;70.46;98915.59;5042258;28;20789;-85
2021/04/17 02:42:48;;;;;;;16.05;12.27;;;4.50;85.80;;;3.39;70.16;98920.81;5041721;28;20426;-85
2021/04/17 02:45:15;;;;;;;19.10;12.20;;;4.50;85.50;;;3.45;70.16;98924.56;5043507;28;20423;-85
2021/04/17 02:47:42;;;;;;;16.65;12.38;;;4.60;85.30;;;3.47;70.11;98927.81;5052180;28;20449;-85
2021/04/17 02:50:09;;;;;;;17.52;12.57;;;4.60;85.30;;;3.42;70.08;98923.09;5037922;28;20407;-84
2021/04/17 02:52:35;;;;;;;15.95;11.82;;;4.60;85.40;;;3.47;70.02;98919.97;5036993;28;20495;-85
2021/04/17 02:55:03;;;;;;;17.95;12.50;;;4.60;85.50;;;3.44;70.02;98918.53;5055794;28;20395;-85
2021/04/17 02:57:29;;;;;;;18.80;12.82;;;4.60;85.40;;;3.49;70.27;98920.63;5055681;28;20414;-84
2021/04/17 02:59:55;;;;;;;17.83;12.27;;;4.60;85.50;;;3.66;69.73;98924.00;5055174;28;20441;-81
2021/04/17 03:02:22;;;;;;;15.52;12.20;;;4.70;85.30;;;3.72;69.28;98925.94;5048265;28;20445;-85
2021/04/17 03:04:49;;;;;;;20.30;13.35;;;4.70;84.80;;;3.77;69.25;98921.81;5042363;28;20425;-84
2021/04/17 03:07:15;;;;;;;17.42;12.13;;;4.80;84.70;;;3.67;68.99;98917.78;5051822;28;20423;-84
2021/04/17 03:09:41;;;;;;;17.20;11.95;;;4.80;84.20;;;3.75;69.03;98915.16;5051915;28;20498;-83
2021/04/17 03:12:08;;;;;;;16.30;12.02;;;4.80;84.20;;;3.76;69.01;98916.78;5034288;28;20479;-83
2021/04/17 03:14:35;;;;;;;17.15;12.82;;;4.80;84.10;;;3.92;68.51;98913.25;5052077;28;20436;-82
2021/04/17 03:17:01;;;;;;;16.45;12.57;;;4.90;84.00;;;3.95;68.35;98902.44;5052211;28;20785;-83
2021/04/17 03:19:27;;;;;;;16.50;12.15;;;5.00;83.60;;;3.91;68.29;98912.44;5052194;28;20418;-82
2021/04/17 03:21:54;;;;;;;18.00;12.45;;;5.00;83.50;;;3.87;68.49;98905.91;5033434;28;20494;-83
2021/04/17 03:24:21;;;;;;;19.63;12.15;;;5.00;83.60;;;3.96;68.20;98901.47;5050406;28;20429;-83
2021/04/17 03:26:47;;;;;;;19.20;13.35;;;5.00;83.60;;;3.98;68.25;98902.94;5045946;28;20468;-86
2021/04/17 03:29:13;;;;;;;16.75;12.80;;;5.10;83.40;;;3.84;68.38;98901.81;5039719;28;20497;-84
2021/04/17 03:31:40;;;;;;;17.60;12.57;;;5.00;83.20;;;3.93;68.22;98907.03;5038751;28;20410;-85
2021/04/17 03:34:06;;;;;;;19.48;13.45;;;5.00;83.50;;;3.88;68.52;98902.31;5041235;28;20426;-85
2021/04/17 03:36:32;;;;;;;18.27;13.07;;;4.90;83.50;;;3.85;68.70;98906.09;5042455;28;20547;-84
2021/04/17 03:38:59;;;;;;;20.27;13.18;;;4.90;83.80;;;3.85;68.55;98910.50;5039759;28;20515;-85
2021/04/17 03:41:25;;;;;;;20.42;13.63;;;4.90;83.80;;;3.65;69.08;98906.66;5040245;28;20484;-85
2021/04/17 03:43:52;;;;;;;17.45;13.80;;;4.80;84.00;;;3.59;69.47;98907.34;5039949;28;20490;-85
2021/04/17 03:46:18;;;;;;;19.35;14.05;;;4.70;84.40;;;3.50;69.93;98904.75;5021369;28;20604;-85
2021/04/17 03:48:44;;;;;;;17.52;13.43;;;4.70;85.00;;;3.78;69.24;98902.50;5039675;28;20411;-85
2021/04/17 03:51:10;;;;;;;17.50;12.73;;;4.80;85.80;;;3.72;69.13;98905.81;5042374;28;20418;-85
2021/04/17 03:53:36;;;;;;;21.17;13.45;;;4.80;84.40;;;3.66;69.26;98908.31;5038582;28;20469;-85
2021/04/17 03:56:03;;;;;;;20.63;13.98;;;4.80;84.50;;;3.79;69.40;98908.56;5042176;28;20420;-85
2021/04/17 03:58:29;;;;;;;19.50;12.83;;;4.80;84.80;;;3.88;68.92;98903.13;5050651;28;20453;-84
2021/04/17 04:00:56;;;;;;;16.95;13.43;;;4.90;84.50;;;3.86;68.79;98906.91;5047721;28;20411;-85
2021/04/17 04:03:22;;;;;;;17.33;13.35;;;4.90;84.20;;;3.86;68.82;98904.28;5043735;28;20472;-85
2021/04/17 04:05:48;;;;;;;21.17;14.10;;;5.00;84.20;;;3.76;68.94;98911.53;5044222;28;20403;-85
2021/04/17 04:08:14;;;;;;;20.88;14.23;;;4.90;84.00;;;3.85;68.93;98918.34;5025553;28;20427;-85
2021/04/17 04:10:40;;;;;;;19.90;13.20;;;4.90;84.50;;;3.71;68.83;98914.66;5042639;28;20408;-85
2021/04/17 04:13:07;;;;;;;20.00;14.10;;;4.90;84.10;;;3.51;69.90;98921.28;5025076;28;20457;-84
2021/04/17 04:15:33;;;;;;;21.02;14.10;;;4.70;84.60;;;3.54;69.84;98923.53;5042011;28;20446;-85
2021/04/17 04:17:59;;;;;;;18.67;14.40;;;4.60;85.10;;;3.50;69.83;98925.69;5042341;28;20825;-85
2021/04/17 04:20:25;;;;;;;18.33;13.95;;;4.60;85.30;;;3.71;69.42;98919.91;5044788;28;20460;-85
2021/04/17 04:22:52;;;;;;;17.70;12.90;;;4.80;85.20;;;3.88;69.11;98920.66;5041883;28;20518;-85
2021/04/17 04:25:18;;;;;;;16.40;13.07;;;4.90;84.80;;;3.94;68.88;98919.13;5044878;28;20403;-85
2021/04/17 04:27:44;;;;;;;19.70;13.75;;;5.00;84.20;;;3.93;68.78;98912.25;5044273;28;20509;-85
2021/04/17 04:30:12;;;;;;;19.02;14.00;;;5.10;83.90;;;3.88;68.66;98918.84;5027171;28;20449;-85
2021/04/17 04:32:39;;;;;;;22.80;14.38;;;5.00;84.00;;;3.78;68.95;98922.66;5038388;28;20565;-84
2021/04/17 04:35:07;;;;;;;19.52;14.90;;;4.90;84.20;;;3.63;69.63;98922.53;5057792;28;20426;-84
2021/04/17 04:37:33;;;;;;;18.85;14.85;;;4.80;84.80;;;3.34;70.97;98917.06;5057529;28;20402;-83
2021/04/17 04:39:59;;;;;;;19.97;15.27;;;4.60;85.80;;;3.29;71.05;98920.19;5050292;28;20806;-85
2021/04/17 04:42:25;;;;;;;20.85;15.70;;;4.50;86.20;;;3.26;71.32;98922.31;5043842;28;20427;-84
2021/04/17 04:44:52;;;;;;;20.02;16.00;;;4.40;86.60;;;3.19;71.59;98922.16;5045497;28;20414;-84
2021/04/17 04:47:19;;;;;;;23.00;16.27;;;4.40;86.70;;;3.21;71.65;98922.81;5042963;28;20497;-83
2021/04/17 04:49:45;;;;;;;20.90;15.88;;;4.40;87.10;;;3.32;71.14;98930.31;5042595;28;20686;-81
2021/04/17 04:52:11;;;;;;;27.40;15.95;;;4.40;86.80;;;3.42;71.21;98933.56;5023990;28;20670;-84
2021/04/17 04:54:37;;;;;;;26.48;16.10;;;4.50;86.60;;;3.51;70.61;98926.50;5041623;28;20406;-85
2021/04/17 04:57:04;;;;;;;23.13;15.85;;;4.60;86.10;;;3.61;70.13;98927.13;5041403;28;20423;-86
2021/04/17 04:59:30;;;;;;;21.50;14.90;;;4.70;85.80;;;3.54;70.29;98930.56;5042334;28;20506;-85
2021/04/17 05:01:56;;;;;;;22.95;15.82;;;4.60;85.50;;;3.70;69.66;98933.97;5042422;28;20438;-85
2021/04/17 05:04:23;;;;;;;19.52;14.85;;;4.70;85.50;;;3.64;69.54;98933.84;5043199;28;20403;-86
2021/04/17 05:06:49;;;;;;;26.00;15.60;;;4.70;85.00;;;3.76;69.30;98938.53;5042792;28;20667;-86
2021/04/17 05:09:15;;;;;;;25.08;16.50;;;4.80;85.10;;;3.68;69.42;98929.91;5041977;28;20446;-86
2021/04/17 05:11:42;;;;;;;22.87;15.97;;;4.80;84.80;;;3.66;69.53;98934.50;5041486;28;20482;-85
2021/04/17 05:14:08;;;;;;;19.67;15.32;;;4.80;84.70;;;3.73;69.26;98938.88;5042765;28;20748;-83
2021/04/17 05:16:34;;;;;;;19.70;15.55;;;4.80;84.80;;;3.94;68.69;98932.25;5041666;28;20403;-86
2021/04/17 05:19:00;;;;;;;23.08;14.75;;;4.90;84.40;;;3.96;68.48;98931.09;5041676;28;20425;-85
2021/04/17 05:21:28;;;;;;;20.92;15.77;;;5.10;83.90;;;3.94;68.65;98933.06;5041696;28;20631;-85
2021/04/17 05:23:54;;;;;;;23.67;15.88;;;5.10;83.80;;;3.80;69.02;98931.16;5041428;28;20449;-84
2021/04/17 05:26:20;;;;;;;24.17;16.05;;;5.00;84.00;;;3.72;69.39;98934.63;5041728;28;20502;-85
2021/04/17 05:28:46;;;;;;;23.63;15.55;;;4.90;84.50;;;3.62;70.00;98935.78;5044118;28;20415;-86
2021/04/17 05:31:13;;;;;;;24.13;16.35;;;4.80;85.20;;;3.60;69.78;98936.00;5046329;28;20395;-85
2021/04/17 05:33:39;;;;;;;23.23;16.10;;;4.80;85.30;;;3.64;70.06;98937.28;5046604;28;20429;-77
2021/04/17 05:36:06;;;;;;;22.77;16.45;;;4.80;85.60;;;3.64;70.24;98939.88;5049275;28;20494;-78
2021/04/17 05:38:33;;;;;;;26.33;16.70;;;4.80;85.50;;;3.57;70.78;98938.09;5034729;28;20430;-77
2021/04/17 05:41:00;;;;;;;24.23;17.20;;;4.70;85.90;;;3.57;70.81;98938.94;5031023;28;20425;-77
2021/04/17 05:43:26;;;;;;;26.17;16.33;;;4.80;85.80;;;3.58;70.56;98937.13;5051573;28;20465;-78
2021/04/17 05:45:52;;;;;;;23.25;16.10;;;4.70;85.80;;;3.57;70.21;98941.53;5035109;28;20446;-78
2021/04/17 05:48:18;;;;;;;25.33;16.52;;;4.80;85.70;;;3.55;70.58;98940.06;5034050;28;20427;-78
2021/04/17 05:50:44;;;;;;;25.33;16.65;;;4.70;85.90;;;3.47;70.48;98940.91;5051912;28;20415;-78
2021/04/17 05:53:10;;;;;;;25.38;17.65;;;4.60;85.90;;;3.52;70.30;98935.19;5053221;28;20420;-77
2021/04/17 05:55:39;;;;;;;25.92;17.25;;;4.60;86.00;;;3.56;70.22;98939.91;5056087;28;20406;-79
2021/04/17 05:58:05;;;;;;;26.00;17.65;;;4.80;85.40;;;3.67;69.87;98936.94;5049076;28;20457;-78
2021/04/17 06:00:31;;;;;;;25.70;17.00;;;4.80;85.30;;;3.71;69.37;98942.66;5048881;28;20407;-79
2021/04/17 06:03:05;;;;;;;28.13;17.50;;;4.80;84.80;;;3.80;69.38;98939.84;5049401;28;20805;-80
2021/04/17 06:05:31;;;;;;;22.95;16.35;;;4.90;84.70;;;3.70;69.74;98939.19;5049748;28;20411;-78
2021/04/17 06:07:57;;;;;;;27.52;17.60;;;4.90;84.80;;;3.76;69.03;98946.38;5052204;28;20395;-80
2021/04/17 06:10:24;;;;;;;26.95;16.45;;;4.90;84.50;;;3.64;68.99;98939.06;5039071;28;20415;-81
2021/04/17 06:12:51;;;;;;;27.10;17.90;;;4.90;84.20;;;3.58;69.72;98940.56;5054321;28;20446;-79
2021/04/17 06:15:17;;;;;;;26.40;17.98;;;4.80;84.80;;;3.57;69.71;98941.53;5050694;28;20416;-80
2021/04/17 06:17:43;;;;;;;26.00;17.67;;;4.70;85.90;;;3.70;69.44;98941.81;5028565;28;20461;-79
2021/04/17 06:20:11;;;;;;;27.10;17.60;;;4.80;84.80;;;3.58;69.97;98948.41;5048716;28;20419;-81
2021/04/17 06:22:37;;;;;;;24.95;17.40;;;4.80;85.10;;;3.69;69.59;98944.59;5054937;28;20429;-80
2021/04/17 06:25:05;;;;;;;26.38;16.60;;;4.80;85.00;;;3.74;69.11;98944.94;5046441;28;20703;-81
2021/04/17 06:27:32;;;;;;;24.25;17.25;;;4.90;84.70;;;3.79;69.17;98946.06;5041005;28;20808;-80
2021/04/17 06:29:59;;;;;;;23.33;16.63;;;4.90;84.40;;;3.93;68.86;98941.09;5039589;28;20407;-80
2021/04/17 06:32:26;;;;;;;22.95;17.75;;;5.00;84.20;;;4.14;67.98;98942.13;5049663;28;20465;-79
2021/04/17 06:34:52;;;;;;;26.70;18.50;;;5.20;83.60;;;4.23;67.10;98938.47;5052870;28;20441;-79
2021/04/17 06:37:18;;;;;;;23.00;16.55;;;5.30;82.70;;;4.60;65.82;98939.56;5033955;28;20502;-78
2021/04/17 06:39:44;;;;;;;25.85;16.88;;;5.60;81.60;;;4.60;65.82;98943.00;5046040;28;20529;-79
2021/04/17 06:42:13;;;;;;;21.70;16.15;;;5.70;80.70;;;4.74;65.36;98941.41;5023340;28;20526;-79
2021/04/17 06:44:42;;;;;;;26.15;17.27;;;5.80;81.00;;;4.93;64.39;98948.00;5042105;28;20411;-79
2021/04/17 06:47:11;;;;;;;26.60;17.33;;;6.00;79.70;;;4.90;64.53;98943.91;5047495;28;20446;-79
2021/04/17 06:49:42;;;;;;;24.10;16.75;;;6.00;79.30;;;4.88;64.46;98945.09;5043572;28;20401;-78
2021/04/17 06:52:10;;;;;;;23.23;16.70;;;5.90;79.20;;;5.12;63.93;98941.44;5041852;28;20398;-77
2021/04/17 06:54:37;;;;;;;23.75;15.98;;;6.10;79.10;;;5.40;62.65;98938.06;5047469;28;20407;-78
2021/04/17 06:57:04;;;;;;;25.20;16.55;;;6.30;77.90;;;5.50;62.36;98939.56;5052013;28;20395;-79
2021/04/17 06:59:31;;;;;;;22.50;16.30;;;6.50;77.20;;;5.47;62.41;98938.16;5026308;28;20422;-80
2021/04/17 07:02:00;;;;;;;23.40;16.10;;;6.60;76.80;;;5.29;62.70;98938.47;5040485;28;20468;-80
2021/04/17 07:04:27;;;;;;;23.00;16.70;;;6.50;77.10;;;5.14;63.43;98934.19;5041685;28;20410;-82
2021/04/17 07:06:54;;;;;;;23.92;16.38;;;6.20;77.60;;;5.44;62.48;98934.06;5040665;28;20434;-80
2021/04/17 07:09:20;;;;;;;31.57;18.77;;;6.40;77.90;;;5.50;61.98;98942.19;5040913;28;20418;-81
2021/04/17 07:11:47;;;;;;;23.52;16.33;;;6.50;77.00;;;5.54;61.45;98940.88;5041218;28;20697;-81
2021/04/17 07:14:15;;;;;;;24.60;15.70;;;6.60;75.90;;;5.72;60.82;98934.25;5040796;28;20418;-81
2021/04/17 07:17:00;;;;;;;24.45;16.08;;;6.70;75.40;;;5.89;60.49;98934.09;5042981;28;20414;-80
2021/04/17 07:19:52;;;;;;;24.05;16.73;;;6.90;74.80;;;5.92;60.45;98937.16;5039098;28;20410;-80
2021/04/17 07:22:22;;;;;;;25.08;16.67;;;6.90;74.50;;;5.91;60.37;98932.09;5039725;28;20458;-81
2021/04/17 07:24:52;;;;;;;22.38;15.52;;;7.00;74.30;;;6.26;59.32;98938.38;5040770;28;20709;-81
2021/04/17 07:27:38;;;;;;;23.33;16.25;;;7.20;74.10;;;6.53;58.48;98937.66;5040280;28;20445;-80
2021/04/17 07:30:29;;;;;;;23.85;16.05;;;7.50;72.50;;;5.95;59.70;98934.16;5041217;28;20414;-80
2021/04/17 07:33:11;;;;;;;25.25;15.57;;;7.10;73.10;;;5.68;60.75;98932.97;5039197;28;20531;-80
2021/04/17 07:35:40;;;;;;;25.23;16.55;;;6.70;74.90;;;6.00;59.75;98926.56;5041126;28;20698;-80
2021/04/17 07:38:18;;;;;;;32.13;16.50;;;7.00;74.40;;;6.24;59.26;98928.03;5039477;28;20415;-81
2021/04/17 07:40:59;;;;;;;21.97;16.03;;;7.20;73.50;;;6.11;59.70;98927.88;5038984;28;20840;-80
2021/04/17 07:43:46;;;;;;;24.37;15.97;;;7.30;73.10;;;6.26;59.16;98925.22;5038822;28;20415;-80
2021/04/17 07:46:13;;;;;;;24.90;16.70;;;7.30;73.10;;;6.38;58.71;98929.81;5041160;28;20423;-80
2021/04/17 07:48:40;;;;;;;23.35;15.27;;;7.40;72.60;;;6.55;57.93;98918.03;5039206;28;20450;-80
2021/04/17 07:51:08;;;;;;;23.85;15.38;;;7.50;71.90;;;6.50;57.39;98919.63;5021923;28;20449;-80
2021/04/17 07:53:36;;;;;;;24.20;15.20;;;7.60;70.50;;;6.46;57.45;98923.63;5040079;28;20806;-79
2021/04/17 07:56:29;;;;;;;23.67;15.98;;;7.50;70.60;;;6.57;56.83;98915.22;5039675;28;20403;-81
2021/04/17 07:58:57;;;;;;;25.23;16.15;;;7.60;70.40;;;6.58;56.77;98922.13;5039744;28;20411;-79
2021/04/17 08:01:25;;;;;;;23.73;15.02;;;7.60;69.80;;;6.75;56.15;98909.53;5046991;28;20483;-80
2021/04/17 08:03:55;;;;;;;21.88;14.85;;;7.80;69.50;;;6.80;54.71;98909.78;5053309;28;20419;-79
2021/04/17 08:06:24;;;;;;;22.40;15.60;;;7.90;67.80;;;6.67;54.57;98915.75;5046101;28;20437;-80
2021/04/17 08:08:53;;;;;;;21.88;13.85;;;7.70;67.10;;;6.70;55.17;98912.72;5041088;28;20506;-80
2021/04/17 08:11:21;;;;;;;25.48;13.68;;;7.70;68.10;;;6.50;55.02;98917.81;5040903;28;20452;-79
2021/04/17 08:13:49;;;;;;;20.40;13.65;;;7.60;67.40;;;6.49;55.37;98905.66;5038943;28;20473;-80
2021/04/17 08:16:18;;;;;;;23.02;12.93;;;7.60;68.40;;;6.71;54.98;98916.97;5039944;28;20417;-79
2021/04/17 08:18:46;;;;;;;23.60;13.65;;;7.70;68.30;;;6.54;55.46;98911.16;5039494;28;20426;-80
2021/04/17 08:21:15;;;;;;;25.38;13.73;;;7.60;67.90;;;6.60;55.54;98904.34;5040083;28;20407;-81
2021/04/17 08:23:45;;;;;;;20.35;13.32;;;7.60;68.40;;;6.63;55.87;98908.41;5020982;28;20427;-81
2021/04/17 08:26:12;;;;;;;25.52;16.38;;;7.70;68.50;;;6.96;55.23;98907.69;5041142;28;20437;-81
2021/04/17 08:28:43;;;;;;;22.02;14.55;;;7.90;68.40;;;7.12;54.54;98905.78;5040181;28;20526;-81
2021/04/17 08:31:30;;;;;;;18.10;12.43;;;8.00;68.00;;;7.00;54.03;98901.03;5041333;28;21074;-80
2021/04/17 08:34:16;;;;;;;20.38;13.40;;;8.10;66.20;;;6.97;54.38;98900.63;5040601;28;20426;-81
2021/04/17 08:36:46;;;;;;;22.98;13.88;;;8.00;67.10;;;6.99;54.19;98901.25;5041048;28;20833;-81
2021/04/17 08:39:42;;;;;;;22.30;14.07;;;8.00;66.80;;;7.11;53.95;98897.06;5040396;28;20426;-81
2021/04/17 08:42:14;;;;;;;18.27;11.32;;;8.10;66.60;;;7.10;52.61;98897.25;5038647;28;20419;-79
2021/04/17 08:44:43;;;;;;;15.38;10.13;;;8.10;64.70;;;7.20;51.60;98901.19;5042064;28;20421;-80
2021/04/17 08:47:12;;;;;;;16.58;11.07;;;8.20;63.60;;;7.08;52.18;98897.44;5042591;28;20426;-80
2021/04/17 08:49:40;;;;;;;18.88;11.15;;;8.20;63.80;;;7.24;52.31;98904.25;5030738;28;20401;-81
2021/04/17 08:52:23;;;;;;;15.32;10.00;;;8.20;64.30;;;7.28;51.80;98898.41;5024034;28;20405;-82
2021/04/17 08:55:16;;;;;;;13.98;9.32;;;8.30;63.80;;;7.33;51.42;98896.00;5025373;28;20818;-82
2021/04/17 08:57:43;;;;;;;16.20;9.77;;;8.30;63.00;;;7.57;51.11;98896.56;5023802;28;20475;-82
2021/04/17 09:00:11;;;;;;;24.80;12.32;;;8.50;62.90;;;7.63;49.74;98895.78;5028297;28;20416;-82
2021/04/17 09:02:49;;;;;;;12.70;8.30;;;8.60;61.40;;;7.61;49.73;98895.13;5033757;28;20424;-82
2021/04/17 09:05:17;;;;;;;13.05;7.93;;;8.60;60.70;;;7.66;49.52;98895.38;5033533;28;20509;-81
2021/04/17 09:07:46;;;;;;;14.73;8.97;;;8.60;60.70;;;7.75;49.80;98894.19;5034565;28;20396;-80
2021/04/17 09:10:33;;;;;;;15.53;9.17;;;8.70;61.10;;;8.20;49.02;98897.19;5034384;28;20708;-80
2021/04/17 09:13:31;;;;;;;20.07;10.53;;;9.00;61.00;;;8.24;49.18;98890.53;5033771;28;20460;-80
2021/04/17 09:15:59;;;;;;;16.30;9.50;;;9.20;60.20;;;8.36;48.52;98894.25;5033281;28;20405;-81
2021/04/17 09:18:40;;;;;;;18.08;10.00;;;9.30;59.80;;;8.11;49.28;98886.03;5034322;28;20408;-81
2021/04/17 09:21:32;;;;;;;15.38;10.10;;;9.10;59.90;;;7.95;49.97;98889.84;5032943;28;20432;-80
2021/04/17 09:23:59;;;;;;;16.95;10.07;;;9.00;60.80;;;8.17;49.41;98890.53;5034273;28;20440;-81
2021/04/17 09:26:40;;;;;;;16.88;9.68;;;9.10;61.00;;;8.00;49.66;98891.88;5035597;28;20421;-82
2021/04/17 09:29:25;;;;;;;15.77;9.55;;;9.00;60.50;;;8.05;49.95;98886.81;5035671;28;20413;-82
2021/04/17 09:31:56;;;;;;;14.15;10.05;;;9.00;61.00;;;8.25;49.44;98881.63;5035471;28;20455;-81
2021/04/17 09:34:22;;;;;;;19.90;9.55;;;9.20;60.70;;;8.50;48.46;98878.22;5034116;28;20458;-81
2021/04/17 09:36:50;;;;;;;12.32;7.88;;;9.40;59.70;;;8.22;47.09;98882.00;5032632;28;20440;-82
2021/04/17 09:39:28;;;;;;;15.80;8.02;;;9.20;57.70;;;8.14;47.03;98878.53;5035100;28;20479;-82
2021/04/17 09:41:58;;;;;;;14.10;8.50;;;9.20;57.60;;;8.30;46.36;98879.19;5030606;28;20436;-81
2021/04/17 09:44:25;;;;;;;13.02;8.30;;;9.20;57.40;;;8.10;47.50;98874.69;5027661;28;20450;-81
2021/04/17 09:47:09;;;;;;;16.92;7.82;;;9.20;58.20;;;7.94;47.70;98872.38;5026259;28;20429;-81
2021/04/17 09:49:41;;;;;;;11.60;7.82;;;9.00;58.10;;;8.08;46.77;98874.06;5027505;28;20409;-81
2021/04/17 09:52:08;;;;;;;13.43;7.03;;;9.10;57.60;;;7.91;46.96;98866.69;5026685;28;20408;-81
2021/04/17 09:54:35;;;;;;;13.73;8.13;;;9.00;57.30;;;8.03;47.28;98862.47;5025888;28;20413;-80
2021/04/17 09:57:09;;;;;;;13.23;8.00;;;9.00;57.90;;;7.92;47.10;98861.22;5024144;28;20415;-82
2021/04/17 09:59:36;;;;;;;13.35;7.30;;;9.00;57.60;;;7.98;47.25;98854.34;5025135;28;20420;-83
2021/04/17 10:02:12;;;;;;;16.42;7.88;;;9.00;57.90;;;8.13;46.88;98845.25;5025945;28;20436;-86
2021/04/17 10:04:58;;;;;;;14.55;9.43;;;9.10;57.90;;;8.22;46.96;98853.78;5024673;28;20431;-81
2021/04/17 10:07:25;;;;;;;10.90;7.38;;;9.20;57.70;;;8.00;46.62;98839.94;5022949;28;20487;-81
2021/04/17 10:10:00;;;;;;;11.00;7.50;;;9.00;56.90;;;8.11;46.25;98843.84;5021822;28;20569;-79
2021/04/17 10:12:27;;;;;;;17.42;7.90;;;9.10;57.00;;;8.38;46.08;98847.38;5021110;28;20487;-80
2021/04/17 10:15:13;;;;;;;12.27;7.63;;;9.30;57.10;;;8.32;45.80;98841.06;5022946;28;20575;-79
2021/04/17 10:17:39;;;;;;;11.95;7.75;;;9.30;56.20;;;8.16;46.29;98836.13;5039064;28;20424;-79
2021/04/17 10:20:07;;;;;;;11.25;7.72;;;9.20;56.50;;;8.18;46.92;98834.13;5024161;28;20515;-80
2021/04/17 10:22:33;;;;;;;20.42;7.90;;;9.20;57.40;;;8.43;46.48;98844.94;5022563;28;20429;-79
2021/04/17 10:24:59;;;;;;;12.77;7.70;;;9.40;57.30;;;8.35;46.58;98845.94;5029247;28;20503;-79
2021/04/17 10:27:33;;;;;;;16.23;8.40;;;9.40;57.00;;;8.48;46.15;98840.69;5027513;28;20482;-79
2021/04/17 10:30:00;;;;;;;13.98;7.60;;;9.40;57.00;;;8.76;45.71;98835.22;5027005;28;20415;-79